sensor_id;sensor_type;location;lat;lon;timestamp;pressure;altitude;pressure_sealevel;temperature;humidity
80102;BME280;69407;44.966;19.622;2023-04-25T00:01:59;99780.19;;;13.18;81.19
80102;BME280;69407;44.966;19.622;2023-04-25T00:04:25;99774.47;;;12.60;83.46
80102;BME280;69407;44.966;19.622;2023-04-25T00:06:52;99778.28;;;12.82;82.84
80102;BME280;69407;44.966;19.622;2023-04-25T00:09:18;99772.00;;;12.57;83.58
80102;BME280;69407;44.966;19.622;2023-04-25T00:11:43;99776.06;;;12.63;83.30
80102;BME280;69407;44.966;19.622;2023-04-25T00:14:09;99771.81;;;12.60;83.17
80102;BME280;69407;44.966;19.622;2023-04-25T00:16:35;99777.63;;;12.53;83.96
80102;BME280;69407;44.966;19.622;2023-04-25T00:19:01;99778.03;;;12.59;84.33
80102;BME280;69407;44.966;19.622;2023-04-25T00:21:28;99774.97;;;12.66;84.15
80102;BME280;69407;44.966;19.622;2023-04-25T00:23:55;99776.69;;;12.67;84.36
80102;BME280;69407;44.966;19.622;2023-04-25T00:26:20;99775.28;;;12.48;84.83
80102;BME280;69407;44.966;19.622;2023-04-25T00:28:47;99772.94;;;12.44;84.97
80102;BME280;69407;44.966;19.622;2023-04-25T00:31:13;99769.00;;;12.37;85.39
80102;BME280;69407;44.966;19.622;2023-04-25T00:33:38;99782.53;;;12.32;85.29
80102;BME280;69407;44.966;19.622;2023-04-25T00:36:05;99779.09;;;12.17;86.09
80102;BME280;69407;44.966;19.622;2023-04-25T00:38:30;99780.50;;;12.23;85.67
80102;BME280;69407;44.966;19.622;2023-04-25T00:40:56;99778.22;;;12.44;85.19
80102;BME280;69407;44.966;19.622;2023-04-25T00:43:25;99783.38;;;12.32;85.15
80102;BME280;69407;44.966;19.622;2023-04-25T00:45:52;99776.59;;;12.28;85.66
80102;BME280;69407;44.966;19.622;2023-04-25T00:48:18;99771.94;;;12.32;85.29
80102;BME280;69407;44.966;19.622;2023-04-25T00:50:52;99774.72;;;12.43;85.59
80102;BME280;69407;44.966;19.622;2023-04-25T00:53:22;99764.72;;;12.34;84.86
80102;BME280;69407;44.966;19.622;2023-04-25T00:55:49;99774.88;;;12.15;85.25
80102;BME280;69407;44.966;19.622;2023-04-25T00:58:17;99771.47;;;12.13;85.73
80102;BME280;69407;44.966;19.622;2023-04-25T01:00:45;99766.13;;;12.27;84.90
80102;BME280;69407;44.966;19.622;2023-04-25T01:03:11;99774.94;;;12.00;85.23
80102;BME280;69407;44.966;19.622;2023-04-25T01:05:36;99759.13;;;12.26;84.84
80102;BME280;69407;44.966;19.622;2023-04-25T01:08:02;99769.13;;;12.48;84.23
80102;BME280;69407;44.966;19.622;2023-04-25T01:10:28;99764.91;;;12.18;85.17
80102;BME280;69407;44.966;19.622;2023-04-25T01:12:53;99772.59;;;12.09;85.26
80102;BME280;69407;44.966;19.622;2023-04-25T01:15:19;99759.72;;;12.17;85.90
80102;BME280;69407;44.966;19.622;2023-04-25T01:17:44;99759.75;;;12.29;85.19
80102;BME280;69407;44.966;19.622;2023-04-25T01:20:11;99766.41;;;12.22;85.58
80102;BME280;69407;44.966;19.622;2023-04-25T01:22:37;99771.13;;;12.05;86.35
80102;BME280;69407;44.966;19.622;2023-04-25T01:25:03;99768.91;;;12.11;86.25
80102;BME280;69407;44.966;19.622;2023-04-25T01:27:29;99764.47;;;12.12;85.71
80102;BME280;69407;44.966;19.622;2023-04-25T01:29:56;99767.38;;;11.94;86.49
80102;BME280;69407;44.966;19.622;2023-04-25T01:32:22;99765.13;;;12.15;86.08
80102;BME280;69407;44.966;19.622;2023-04-25T01:34:48;99764.66;;;12.09;86.14
80102;BME280;69407;44.966;19.622;2023-04-25T01:37:14;99758.75;;;12.18;85.83
80102;BME280;69407;44.966;19.622;2023-04-25T01:39:40;99758.28;;;12.25;85.95
80102;BME280;69407;44.966;19.622;2023-04-25T01:42:06;99766.19;;;12.13;85.92
80102;BME280;69407;44.966;19.622;2023-04-25T01:44:31;99769.47;;;11.89;86.25
80102;BME280;69407;44.966;19.622;2023-04-25T01:46:57;99759.47;;;12.07;86.21
80102;BME280;69407;44.966;19.622;2023-04-25T01:49:22;99763.75;;;11.95;86.65
80102;BME280;69407;44.966;19.622;2023-04-25T01:51:48;99761.31;;;11.92;86.72
80102;BME280;69407;44.966;19.622;2023-04-25T01:54:14;99756.81;;;12.07;86.46
80102;BME280;69407;44.966;19.622;2023-04-25T01:56:40;99750.84;;;12.30;86.34
80102;BME280;69407;44.966;19.622;2023-04-25T01:59:05;99753.78;;;12.13;86.53
80102;BME280;69407;44.966;19.622;2023-04-25T02:01:32;99760.09;;;12.11;86.01
80102;BME280;69407;44.966;19.622;2023-04-25T02:03:57;99755.22;;;12.05;86.16
80102;BME280;69407;44.966;19.622;2023-04-25T02:06:22;99747.22;;;12.19;86.00
80102;BME280;69407;44.966;19.622;2023-04-25T02:08:48;99751.16;;;11.99;86.81
80102;BME280;69407;44.966;19.622;2023-04-25T02:11:13;99750.94;;;11.89;86.95
80102;BME280;69407;44.966;19.622;2023-04-25T02:13:39;99744.97;;;11.86;86.82
80102;BME280;69407;44.966;19.622;2023-04-25T02:16:05;99743.63;;;11.93;86.99
80102;BME280;69407;44.966;19.622;2023-04-25T02:18:30;99746.50;;;11.76;87.21
80102;BME280;69407;44.966;19.622;2023-04-25T02:20:57;99742.81;;;11.78;87.43
80102;BME280;69407;44.966;19.622;2023-04-25T02:23:23;99744.13;;;11.85;87.85
80102;BME280;69407;44.966;19.622;2023-04-25T02:25:48;99741.50;;;11.71;87.63
80102;BME280;69407;44.966;19.622;2023-04-25T02:28:14;99741.59;;;11.84;87.13
80102;BME280;69407;44.966;19.622;2023-04-25T02:30:40;99740.56;;;11.99;87.24
80102;BME280;69407;44.966;19.622;2023-04-25T02:33:05;99738.09;;;11.83;87.62
80102;BME280;69407;44.966;19.622;2023-04-25T02:35:31;99734.97;;;11.91;87.34
80102;BME280;69407;44.966;19.622;2023-04-25T02:37:56;99734.59;;;11.83;87.36
80102;BME280;69407;44.966;19.622;2023-04-25T02:40:22;99728.91;;;11.74;87.77
80102;BME280;69407;44.966;19.622;2023-04-25T02:42:48;99729.69;;;11.77;87.71
80102;BME280;69407;44.966;19.622;2023-04-25T02:45:13;99727.13;;;11.89;88.04
80102;BME280;69407;44.966;19.622;2023-04-25T02:47:39;99726.00;;;11.79;87.94
80102;BME280;69407;44.966;19.622;2023-04-25T02:50:05;99732.22;;;11.78;87.67
80102;BME280;69407;44.966;19.622;2023-04-25T02:52:30;99730.94;;;11.98;87.70
80102;BME280;69407;44.966;19.622;2023-04-25T02:54:56;99731.59;;;12.01;87.75
80102;BME280;69407;44.966;19.622;2023-04-25T02:57:22;99734.59;;;11.83;87.87
80102;BME280;69407;44.966;19.622;2023-04-25T02:59:47;99732.63;;;11.99;87.38
80102;BME280;69407;44.966;19.622;2023-04-25T03:02:13;99743.50;;;11.82;87.76
80102;BME280;69407;44.966;19.622;2023-04-25T03:04:38;99741.78;;;11.81;87.53
80102;BME280;69407;44.966;19.622;2023-04-25T03:07:05;99748.22;;;11.77;87.72
80102;BME280;69407;44.966;19.622;2023-04-25T03:09:30;99749.84;;;11.65;87.73
80102;BME280;69407;44.966;19.622;2023-04-25T03:11:56;99754.63;;;11.72;87.92
80102;BME280;69407;44.966;19.622;2023-04-25T03:14:21;99757.38;;;11.71;87.54
80102;BME280;69407;44.966;19.622;2023-04-25T03:16:47;99760.88;;;11.71;87.25
80102;BME280;69407;44.966;19.622;2023-04-25T03:19:12;99764.59;;;11.55;87.27
80102;BME280;69407;44.966;19.622;2023-04-25T03:21:41;99765.19;;;11.45;87.64
80102;BME280;69407;44.966;19.622;2023-04-25T03:24:06;99779.72;;;11.38;87.05
80102;BME280;69407;44.966;19.622;2023-04-25T03:26:32;99775.78;;;11.17;88.59
80102;BME280;69407;44.966;19.622;2023-04-25T03:28:57;99779.84;;;11.23;87.08
80102;BME280;69407;44.966;19.622;2023-04-25T03:31:23;99775.19;;;11.26;86.68
80102;BME280;69407;44.966;19.622;2023-04-25T03:33:48;99782.13;;;11.14;86.92
80102;BME280;69407;44.966;19.622;2023-04-25T03:36:16;99786.16;;;11.20;86.46
80102;BME280;69407;44.966;19.622;2023-04-25T03:38:42;99787.03;;;11.21;86.62
80102;BME280;69407;44.966;19.622;2023-04-25T03:41:07;99786.91;;;11.22;86.29
80102;BME280;69407;44.966;19.622;2023-04-25T03:43:33;99788.03;;;10.90;86.71
80102;BME280;69407;44.966;19.622;2023-04-25T03:45:58;99794.38;;;11.01;87.00
80102;BME280;69407;44.966;19.622;2023-04-25T03:48:25;99792.88;;;11.11;85.97
80102;BME280;69407;44.966;19.622;2023-04-25T03:50:52;99800.53;;;11.16;85.53
80102;BME280;69407;44.966;19.622;2023-04-25T03:53:17;99798.63;;;11.04;85.40
80102;BME280;69407;44.966;19.622;2023-04-25T03:55:42;99812.03;;;11.01;85.96
80102;BME280;69407;44.966;19.622;2023-04-25T03:58:08;99802.19;;;10.89;86.10
80102;BME280;69407;44.966;19.622;2023-04-25T04:00:35;99802.09;;;10.90;86.83
80102;BME280;69407;44.966;19.622;2023-04-25T04:03:00;99803.72;;;11.07;85.97
80102;BME280;69407;44.966;19.622;2023-04-25T04:05:26;99803.34;;;11.13;85.88
80102;BME280;69407;44.966;19.622;2023-04-25T04:07:52;99813.25;;;11.09;86.00
80102;BME280;69407;44.966;19.622;2023-04-25T04:10:18;99817.16;;;11.04;85.79
80102;BME280;69407;44.966;19.622;2023-04-25T04:12:43;99826.94;;;11.02;85.71
80102;BME280;69407;44.966;19.622;2023-04-25T04:15:09;99825.06;;;11.04;85.57
80102;BME280;69407;44.966;19.622;2023-04-25T04:17:35;99830.06;;;10.94;85.57
80102;BME280;69407;44.966;19.622;2023-04-25T04:20:01;99843.59;;;11.04;85.26
80102;BME280;69407;44.966;19.622;2023-04-25T04:22:26;99843.25;;;10.80;85.41
80102;BME280;69407;44.966;19.622;2023-04-25T04:24:52;99843.72;;;10.86;84.97
80102;BME280;69407;44.966;19.622;2023-04-25T04:27:18;99855.91;;;10.89;84.60
80102;BME280;69407;44.966;19.622;2023-04-25T04:29:45;99854.63;;;10.66;85.64
80102;BME280;69407;44.966;19.622;2023-04-25T04:32:12;99867.88;;;10.80;84.83
80102;BME280;69407;44.966;19.622;2023-04-25T04:34:37;99869.81;;;10.93;84.72
80102;BME280;69407;44.966;19.622;2023-04-25T04:37:04;99871.22;;;10.98;83.92
80102;BME280;69407;44.966;19.622;2023-04-25T04:39:30;99870.34;;;10.83;84.68
80102;BME280;69407;44.966;19.622;2023-04-25T04:41:55;99881.19;;;10.79;85.62
80102;BME280;69407;44.966;19.622;2023-04-25T04:44:21;99878.22;;;10.99;83.54
80102;BME280;69407;44.966;19.622;2023-04-25T04:46:46;99891.31;;;10.86;84.57
80102;BME280;69407;44.966;19.622;2023-04-25T04:49:12;99900.03;;;10.73;83.67
80102;BME280;69407;44.966;19.622;2023-04-25T04:51:39;99895.88;;;10.99;84.07
80102;BME280;69407;44.966;19.622;2023-04-25T04:54:05;99898.50;;;10.99;83.81
80102;BME280;69407;44.966;19.622;2023-04-25T04:56:31;99905.88;;;10.94;83.40
80102;BME280;69407;44.966;19.622;2023-04-25T04:58:58;99906.19;;;11.03;84.11
80102;BME280;69407;44.966;19.622;2023-04-25T05:01:25;99910.22;;;10.95;84.40
80102;BME280;69407;44.966;19.622;2023-04-25T05:03:51;99913.84;;;11.08;84.62
80102;BME280;69407;44.966;19.622;2023-04-25T05:06:18;99926.22;;;11.07;83.51
80102;BME280;69407;44.966;19.622;2023-04-25T05:08:44;99926.78;;;11.12;82.96
80102;BME280;69407;44.966;19.622;2023-04-25T05:11:09;99928.19;;;11.04;84.87
80102;BME280;69407;44.966;19.622;2023-04-25T05:13:35;99930.75;;;11.05;84.11
80102;BME280;69407;44.966;19.622;2023-04-25T05:16:00;99943.44;;;11.14;84.15
80102;BME280;69407;44.966;19.622;2023-04-25T05:18:26;99949.59;;;10.99;83.56
80102;BME280;69407;44.966;19.622;2023-04-25T05:20:51;99942.78;;;10.95;83.36
80102;BME280;69407;44.966;19.622;2023-04-25T05:23:18;99952.84;;;10.89;84.13
80102;BME280;69407;44.966;19.622;2023-04-25T05:25:44;99948.88;;;10.81;84.10
80102;BME280;69407;44.966;19.622;2023-04-25T05:28:11;99955.88;;;10.82;83.68
80102;BME280;69407;44.966;19.622;2023-04-25T05:30:37;99961.88;;;11.00;83.40
80102;BME280;69407;44.966;19.622;2023-04-25T05:33:02;99962.19;;;10.80;83.03
80102;BME280;69407;44.966;19.622;2023-04-25T05:35:28;99964.56;;;10.84;83.34
80102;BME280;69407;44.966;19.622;2023-04-25T05:37:53;99966.44;;;10.82;83.79
80102;BME280;69407;44.966;19.622;2023-04-25T05:40:19;99977.88;;;10.83;84.04
80102;BME280;69407;44.966;19.622;2023-04-25T05:42:44;99975.50;;;10.78;83.32
80102;BME280;69407;44.966;19.622;2023-04-25T05:45:10;99973.41;;;10.83;83.45
80102;BME280;69407;44.966;19.622;2023-04-25T05:47:35;99972.75;;;10.64;84.25
80102;BME280;69407;44.966;19.622;2023-04-25T05:50:01;99977.56;;;11.03;83.47
80102;BME280;69407;44.966;19.622;2023-04-25T05:52:27;99980.22;;;10.88;82.53
80102;BME280;69407;44.966;19.622;2023-04-25T05:54:52;99988.94;;;10.74;83.95
80102;BME280;69407;44.966;19.622;2023-04-25T05:57:22;99978.53;;;10.86;83.09
80102;BME280;69407;44.966;19.622;2023-04-25T05:59:48;99982.78;;;10.89;84.00
80102;BME280;69407;44.966;19.622;2023-04-25T06:02:13;99983.47;;;10.93;83.18
80102;BME280;69407;44.966;19.622;2023-04-25T06:04:39;99992.88;;;10.82;83.47
80102;BME280;69407;44.966;19.622;2023-04-25T06:07:05;99992.59;;;11.03;82.87
80102;BME280;69407;44.966;19.622;2023-04-25T06:09:30;99992.44;;;11.20;83.19
80102;BME280;69407;44.966;19.622;2023-04-25T06:11:55;99992.97;;;11.11;82.73
80102;BME280;69407;44.966;19.622;2023-04-25T06:14:21;99994.00;;;11.08;81.66
80102;BME280;69407;44.966;19.622;2023-04-25T06:16:46;99996.03;;;11.19;82.19
80102;BME280;69407;44.966;19.622;2023-04-25T06:19:12;99996.41;;;10.97;81.94
80102;BME280;69407;44.966;19.622;2023-04-25T06:21:37;100000.91;;;11.11;81.30
80102;BME280;69407;44.966;19.622;2023-04-25T06:24:03;100000.97;;;11.25;82.66
80102;BME280;69407;44.966;19.622;2023-04-25T06:26:29;100009.69;;;11.11;81.69
80102;BME280;69407;44.966;19.622;2023-04-25T06:28:54;100010.41;;;11.15;81.03
80102;BME280;69407;44.966;19.622;2023-04-25T06:31:20;100013.66;;;11.34;80.70
80102;BME280;69407;44.966;19.622;2023-04-25T06:33:45;100011.38;;;11.28;80.67
80102;BME280;69407;44.966;19.622;2023-04-25T06:36:11;100018.09;;;11.34;79.03
80102;BME280;69407;44.966;19.622;2023-04-25T06:38:36;100023.53;;;11.61;80.94
80102;BME280;69407;44.966;19.622;2023-04-25T06:41:02;100017.47;;;11.44;80.73
80102;BME280;69407;44.966;19.622;2023-04-25T06:43:27;100010.09;;;11.50;79.33
80102;BME280;69407;44.966;19.622;2023-04-25T06:45:53;100012.13;;;11.74;78.03
80102;BME280;69407;44.966;19.622;2023-04-25T06:48:18;100005.97;;;11.60;78.27
80102;BME280;69407;44.966;19.622;2023-04-25T06:50:44;100012.56;;;11.97;78.64
80102;BME280;69407;44.966;19.622;2023-04-25T06:53:09;100016.84;;;12.28;77.97
80102;BME280;69407;44.966;19.622;2023-04-25T06:55:36;100016.00;;;12.69;75.24
80102;BME280;69407;44.966;19.622;2023-04-25T06:58:02;100004.22;;;12.60;76.05
80102;BME280;69407;44.966;19.622;2023-04-25T07:00:28;100019.22;;;12.59;74.91
80102;BME280;69407;44.966;19.622;2023-04-25T07:02:54;100016.41;;;12.63;73.48
80102;BME280;69407;44.966;19.622;2023-04-25T07:05:19;100014.19;;;12.69;73.13
80102;BME280;69407;44.966;19.622;2023-04-25T07:07:58;100009.25;;;13.84;71.57
80102;BME280;69407;44.966;19.622;2023-04-25T07:10:23;100006.56;;;14.22;69.42
80102;BME280;69407;44.966;19.622;2023-04-25T07:12:49;99999.72;;;15.51;66.66
80102;BME280;69407;44.966;19.622;2023-04-25T07:15:14;99993.66;;;15.14;65.40
80102;BME280;69407;44.966;19.622;2023-04-25T07:17:40;100002.19;;;15.31;65.53
80102;BME280;69407;44.966;19.622;2023-04-25T07:20:06;100002.28;;;14.94;65.10
80102;BME280;69407;44.966;19.622;2023-04-25T07:22:32;100004.31;;;14.90;64.27
80102;BME280;69407;44.966;19.622;2023-04-25T07:24:58;100007.28;;;15.10;65.51
80102;BME280;69407;44.966;19.622;2023-04-25T07:27:23;99996.03;;;15.65;63.66
80102;BME280;69407;44.966;19.622;2023-04-25T07:29:49;100000.94;;;15.59;60.98
80102;BME280;69407;44.966;19.622;2023-04-25T07:32:15;99993.28;;;15.78;62.42
80102;BME280;69407;44.966;19.622;2023-04-25T07:34:40;99994.72;;;15.12;62.29
80102;BME280;69407;44.966;19.622;2023-04-25T07:37:06;99997.91;;;14.93;63.16
80102;BME280;69407;44.966;19.622;2023-04-25T07:39:32;99999.22;;;15.81;61.40
80102;BME280;69407;44.966;19.622;2023-04-25T07:41:57;99997.44;;;16.27;60.51
80102;BME280;69407;44.966;19.622;2023-04-25T07:44:27;100000.53;;;16.88;58.17
80102;BME280;69407;44.966;19.622;2023-04-25T07:46:53;99996.59;;;16.37;59.98
80102;BME280;69407;44.966;19.622;2023-04-25T07:49:18;99996.78;;;15.08;63.00
80102;BME280;69407;44.966;19.622;2023-04-25T07:51:44;100001.41;;;15.17;62.71
80102;BME280;69407;44.966;19.622;2023-04-25T07:54:13;99998.00;;;15.97;57.15
80102;BME280;69407;44.966;19.622;2023-04-25T07:56:38;100002.69;;;15.12;61.60
80102;BME280;69407;44.966;19.622;2023-04-25T07:59:04;100018.63;;;16.06;61.73
80102;BME280;69407;44.966;19.622;2023-04-25T08:01:30;100007.69;;;15.87;59.02
80102;BME280;69407;44.966;19.622;2023-04-25T08:03:56;100009.66;;;19.50;49.03
80102;BME280;69407;44.966;19.622;2023-04-25T08:06:21;100006.41;;;16.48;55.71
80102;BME280;69407;44.966;19.622;2023-04-25T08:08:47;100005.91;;;21.01;45.09
80102;BME280;69407;44.966;19.622;2023-04-25T08:11:12;100006.72;;;17.73;50.35
80102;BME280;69407;44.966;19.622;2023-04-25T08:13:37;100009.22;;;23.78;37.81
80102;BME280;69407;44.966;19.622;2023-04-25T08:16:03;100016.44;;;24.02;36.11
80102;BME280;69407;44.966;19.622;2023-04-25T08:18:29;100011.38;;;19.03;46.69
80102;BME280;69407;44.966;19.622;2023-04-25T08:20:54;100012.03;;;20.94;44.70
80102;BME280;69407;44.966;19.622;2023-04-25T08:23:20;100026.03;;;22.38;39.26
80102;BME280;69407;44.966;19.622;2023-04-25T08:25:45;100009.72;;;22.14;39.51
80102;BME280;69407;44.966;19.622;2023-04-25T08:28:11;100021.63;;;18.18;48.52
80102;BME280;69407;44.966;19.622;2023-04-25T08:30:36;100025.16;;;22.30;39.57
80102;BME280;69407;44.966;19.622;2023-04-25T08:33:02;100032.44;;;16.67;52.88
80102;BME280;69407;44.966;19.622;2023-04-25T08:35:30;100043.94;;;19.18;45.62
80102;BME280;69407;44.966;19.622;2023-04-25T08:37:58;100023.31;;;20.52;43.59
80102;BME280;69407;44.966;19.622;2023-04-25T08:40:27;100033.88;;;17.57;52.46
80102;BME280;69407;44.966;19.622;2023-04-25T08:42:57;100025.53;;;18.13;50.42
80102;BME280;69407;44.966;19.622;2023-04-25T08:45:23;100036.13;;;17.73;51.57
80102;BME280;69407;44.966;19.622;2023-04-25T08:47:52;100021.72;;;17.85;50.36
80102;BME280;69407;44.966;19.622;2023-04-25T08:50:18;100025.25;;;18.68;49.91
80102;BME280;69407;44.966;19.622;2023-04-25T08:52:50;100026.72;;;18.91;48.63
80102;BME280;69407;44.966;19.622;2023-04-25T08:55:18;100026.03;;;18.28;50.44
80102;BME280;69407;44.966;19.622;2023-04-25T08:57:44;100034.56;;;18.43;49.39
80102;BME280;69407;44.966;19.622;2023-04-25T09:00:11;100030.28;;;17.15;52.53
80102;BME280;69407;44.966;19.622;2023-04-25T09:02:41;100034.59;;;15.95;54.58
80102;BME280;69407;44.966;19.622;2023-04-25T09:05:09;100037.19;;;15.72;55.79
80102;BME280;69407;44.966;19.622;2023-04-25T09:07:38;100044.94;;;17.53;52.83
80102;BME280;69407;44.966;19.622;2023-04-25T09:10:04;100045.28;;;17.27;53.32
80102;BME280;69407;44.966;19.622;2023-04-25T09:12:30;100041.50;;;16.98;52.40
80102;BME280;69407;44.966;19.622;2023-04-25T09:15:10;100038.63;;;16.56;52.77
80102;BME280;69407;44.966;19.622;2023-04-25T09:17:36;100040.06;;;16.04;55.36
80102;BME280;69407;44.966;19.622;2023-04-25T09:20:09;100040.13;;;15.45;56.13
80102;BME280;69407;44.966;19.622;2023-04-25T09:22:36;100037.66;;;15.31;57.01
80102;BME280;69407;44.966;19.622;2023-04-25T09:25:12;100042.91;;;15.68;54.27
80102;BME280;69407;44.966;19.622;2023-04-25T09:27:54;100032.06;;;16.72;54.17
80102;BME280;69407;44.966;19.622;2023-04-25T09:30:31;100031.91;;;18.53;46.89
80102;BME280;69407;44.966;19.622;2023-04-25T09:33:03;100031.91;;;18.93;46.89
80102;BME280;69407;44.966;19.622;2023-04-25T09:35:29;100037.25;;;17.39;48.35
80102;BME280;69407;44.966;19.622;2023-04-25T09:37:55;100040.25;;;17.13;49.64
80102;BME280;69407;44.966;19.622;2023-04-25T09:40:21;100045.25;;;17.92;46.59
80102;BME280;69407;44.966;19.622;2023-04-25T09:42:46;100035.16;;;18.96;46.49
80102;BME280;69407;44.966;19.622;2023-04-25T09:45:12;100031.94;;;18.62;47.01
80102;BME280;69407;44.966;19.622;2023-04-25T09:47:40;100042.78;;;17.79;46.21
80102;BME280;69407;44.966;19.622;2023-04-25T09:50:16;100048.81;;;17.28;47.22
80102;BME280;69407;44.966;19.622;2023-04-25T09:52:43;100042.50;;;18.54;47.11
80102;BME280;69407;44.966;19.622;2023-04-25T09:55:08;100039.13;;;18.01;47.12
80102;BME280;69407;44.966;19.622;2023-04-25T09:57:35;100031.44;;;18.68;45.05
80102;BME280;69407;44.966;19.622;2023-04-25T10:00:01;100031.09;;;19.12;46.44
80102;BME280;69407;44.966;19.622;2023-04-25T10:02:30;100031.59;;;18.86;45.77
80102;BME280;69407;44.966;19.622;2023-04-25T10:04:58;100038.59;;;18.37;46.33
80102;BME280;69407;44.966;19.622;2023-04-25T10:07:26;100041.38;;;17.32;49.81
80102;BME280;69407;44.966;19.622;2023-04-25T10:09:59;100035.25;;;16.77;50.36
80102;BME280;69407;44.966;19.622;2023-04-25T10:12:26;100019.69;;;17.57;49.15
80102;BME280;69407;44.966;19.622;2023-04-25T10:14:52;100021.00;;;17.83;46.79
80102;BME280;69407;44.966;19.622;2023-04-25T10:17:20;100023.25;;;18.39;44.55
80102;BME280;69407;44.966;19.622;2023-04-25T10:19:47;100027.75;;;17.14;45.65
80102;BME280;69407;44.966;19.622;2023-04-25T10:24:56;100021.81;;;17.63;45.99
80102;BME280;69407;44.966;19.622;2023-04-25T10:27:22;100017.94;;;17.88;44.99
80102;BME280;69407;44.966;19.622;2023-04-25T10:30:08;100005.31;;;18.21;47.33
80102;BME280;69407;44.966;19.622;2023-04-25T10:32:36;100012.09;;;18.65;41.68
80102;BME280;69407;44.966;19.622;2023-04-25T10:40:25;100005.19;;;18.01;43.49
80102;BME280;69407;44.966;19.622;2023-04-25T10:42:55;100006.97;;;18.52;44.57
80102;BME280;69407;44.966;19.622;2023-04-25T10:45:22;99997.19;;;17.80;43.25
80102;BME280;69407;44.966;19.622;2023-04-25T10:47:47;99997.25;;;18.51;44.49
80102;BME280;69407;44.966;19.622;2023-04-25T10:50:17;100000.22;;;19.08;43.05
80102;BME280;69407;44.966;19.622;2023-04-25T10:52:42;99989.94;;;18.93;43.50
80102;BME280;69407;44.966;19.622;2023-04-25T10:55:09;99986.56;;;19.40;42.37
80102;BME280;69407;44.966;19.622;2023-04-25T10:57:43;99990.63;;;18.15;41.95
80102;BME280;69407;44.966;19.622;2023-04-25T11:00:18;99975.25;;;19.75;41.41
80102;BME280;69407;44.966;19.622;2023-04-25T11:05:33;99989.34;;;18.80;45.58
80102;BME280;69407;44.966;19.622;2023-04-25T11:07:58;99980.44;;;18.30;45.54
80102;BME280;69407;44.966;19.622;2023-04-25T11:10:31;99992.75;;;17.49;44.07
80102;BME280;69407;44.966;19.622;2023-04-25T11:12:58;99990.00;;;17.07;44.26
80102;BME280;69407;44.966;19.622;2023-04-25T11:15:25;99988.88;;;17.95;43.31
80102;BME280;69407;44.966;19.622;2023-04-25T11:17:52;99995.50;;;17.58;44.16
80102;BME280;69407;44.966;19.622;2023-04-25T11:20:17;99983.81;;;18.01;45.24
80102;BME280;69407;44.966;19.622;2023-04-25T11:22:44;99982.19;;;19.29;46.48
80102;BME280;69407;44.966;19.622;2023-04-25T11:25:12;99989.72;;;18.76;42.52
80102;BME280;69407;44.966;19.622;2023-04-25T11:27:51;99973.03;;;19.02;42.67
80102;BME280;69407;44.966;19.622;2023-04-25T11:30:17;99969.34;;;18.94;45.01
80102;BME280;69407;44.966;19.622;2023-04-25T11:32:43;99976.69;;;19.21;43.71
80102;BME280;69407;44.966;19.622;2023-04-25T11:35:09;99968.34;;;18.35;40.92
80102;BME280;69407;44.966;19.622;2023-04-25T11:37:36;99972.75;;;19.06;38.99
80102;BME280;69407;44.966;19.622;2023-04-25T11:40:03;99972.16;;;19.60;40.20
80102;BME280;69407;44.966;19.622;2023-04-25T11:42:32;99978.16;;;19.91;41.37
80102;BME280;69407;44.966;19.622;2023-04-25T11:44:58;99959.75;;;19.69;40.59
80102;BME280;69407;44.966;19.622;2023-04-25T11:47:33;99972.13;;;18.02;39.28
80102;BME280;69407;44.966;19.622;2023-04-25T11:49:59;99969.34;;;18.84;38.01
80102;BME280;69407;44.966;19.622;2023-04-25T11:52:42;99965.69;;;19.33;37.51
80102;BME280;69407;44.966;19.622;2023-04-25T11:55:19;99964.00;;;19.32;41.66
80102;BME280;69407;44.966;19.622;2023-04-25T11:57:46;99966.81;;;18.92;39.30
80102;BME280;69407;44.966;19.622;2023-04-25T12:02:41;99952.72;;;19.10;40.65
80102;BME280;69407;44.966;19.622;2023-04-25T12:05:08;99953.84;;;19.17;37.66
80102;BME280;69407;44.966;19.622;2023-04-25T12:07:34;99941.31;;;19.27;35.15
80102;BME280;69407;44.966;19.622;2023-04-25T12:10:03;99937.75;;;19.55;37.39
80102;BME280;69407;44.966;19.622;2023-04-25T12:12:32;99947.75;;;18.76;37.25
80102;BME280;69407;44.966;19.622;2023-04-25T12:15:17;99947.28;;;18.11;39.89
80102;BME280;69407;44.966;19.622;2023-04-25T12:17:47;99947.31;;;17.91;43.28
80102;BME280;69407;44.966;19.622;2023-04-25T12:20:15;99947.00;;;17.63;43.89
80102;BME280;69407;44.966;19.622;2023-04-25T12:22:44;99943.34;;;18.56;40.32
80102;BME280;69407;44.966;19.622;2023-04-25T12:25:33;99936.66;;;18.81;43.33
80102;BME280;69407;44.966;19.622;2023-04-25T12:28:16;99930.84;;;19.63;39.01
80102;BME280;69407;44.966;19.622;2023-04-25T12:31:04;99925.25;;;19.17;38.93
80102;BME280;69407;44.966;19.622;2023-04-25T12:33:31;99939.47;;;18.39;39.12
80102;BME280;69407;44.966;19.622;2023-04-25T12:35:57;99930.50;;;17.79;38.41
80102;BME280;69407;44.966;19.622;2023-04-25T12:38:35;99924.53;;;18.86;40.00
80102;BME280;69407;44.966;19.622;2023-04-25T12:41:01;99917.06;;;19.09;37.00
80102;BME280;69407;44.966;19.622;2023-04-25T12:43:26;99909.31;;;19.16;37.00
80102;BME280;69407;44.966;19.622;2023-04-25T12:45:52;99914.53;;;19.17;36.44
80102;BME280;69407;44.966;19.622;2023-04-25T12:48:19;99922.84;;;19.05;37.43
80102;BME280;69407;44.966;19.622;2023-04-25T12:50:44;99921.97;;;17.85;36.14
80102;BME280;69407;44.966;19.622;2023-04-25T12:53:10;99914.75;;;18.06;36.56
80102;BME280;69407;44.966;19.622;2023-04-25T12:55:37;99911.63;;;18.41;38.92
80102;BME280;69407;44.966;19.622;2023-04-25T12:58:02;99906.50;;;18.69;39.86
80102;BME280;69407;44.966;19.622;2023-04-25T13:00:29;99909.94;;;19.47;38.16